Chilton, Texas
Current Conditions -  °F | °C
As of 1:55 AM on Saturday 01 Nov 2014 (Local Time) from KPWG Reporting Station
Clear Clear  
Wind Chill: 43°   Ceiling: Unl
Heat Index: 46°   Visibility: 10mi
Dew Point: 32°   Wind: 7mph
Humidity: 57%   Direction: 30°NNE
Pressure: 30.35"   Gusts: NA
Location:  31.28°N, 97.06°W
Report Text: KPWG 010655Z AUTO 03006KT 10SM CLR 08/00 A3035 RMK AO1
Loading
Personal Weather Stations






























Interactive Weather Map
Tropical Storm Tracking
New forecast layout! Learn more

10-Day Weather Forecast

Advertisements
Track Severe Weather on mobile